Terminal Aerodrome Forecast
Issued by NWS Wilmington, OH

Current Version | Previous Version | Graphics & Text | Print | Product List | Glossary On
Versions: 1 2 3 4 5 6 7 8 9 10 11 12 13 14 15 16 17 18 19 20
000
FTUS41 KILN 260500
TAFILN
TAF
KILN 260538Z 2606/2706 05007KT P6SM OVC150
     FM261400 VRB03KT P6SM BKN025
     FM261800 VRB03KT P6SM SCT025 BKN050
     FM270000 04005KT P6SM BKN150=

USA.gov is the U.S. government's official web portal to all federal, state and local government web resources and services.